Time;durP1;ratioP1;P1;durP2;ratioP2;P2;SDS_P1;SDS_P2;PMS_P1;PMS_P2;Temp;Humidity;BMP_temperature;BMP_pressure;BME280_temperature;BME280_humidity;BME280_pressure;Samples;Min_cycle;Max_cycle;Signal;HPM_P1;HPM_P2
2021/03/23 00:01:18;;;;;;;2.77;1.50;;;;;;;-144.99;99.72;52374.72;5071017;28;20758;-72
2021/03/23 00:03:48;;;;;;;2.73;0.95;;;;;;;-144.99;99.57;52378.78;4705749;28;10000439;-73
2021/03/23 00:06:15;;;;;;;4.87;1.93;;;;;;;-144.99;98.97;52382.88;5061481;28;21209;-73
2021/03/23 00:08:43;;;;;;;4.73;1.53;;;;;;;-144.99;98.61;52399.19;5082303;28;20645;-71
2021/03/23 00:11:13;;;;;;;4.77;1.10;;;;;;;-144.99;98.68;52386.94;5070917;28;20627;-74
2021/03/23 00:13:42;;;;;;;4.50;0.80;;;;;;;-144.99;98.75;52384.91;5058215;28;20693;-73
2021/03/23 00:16:10;;;;;;;1.80;0.80;;;;;;;-144.99;98.70;52391.03;5073720;28;21192;-71
2021/03/23 00:18:36;;;;;;;2.57;1.20;;;;;;;-144.99;98.87;52360.44;5074089;28;21268;-70
2021/03/23 00:21:03;;;;;;;10.57;1.00;;;;;;;-144.99;98.98;52403.25;5082109;28;20617;-71
2021/03/23 00:23:29;;;;;;;0.97;0.70;;;;;;;-144.99;99.12;52399.19;5077228;28;20634;-74
2021/03/23 00:25:55;;;;;;;4.07;2.73;;;;;;;-144.99;99.43;52366.56;5066266;28;20631;-71
2021/03/23 00:28:23;;;;;;;5.83;1.40;;;;;;;-144.99;99.32;52395.09;5070681;28;21238;-72
2021/03/23 00:30:51;;;;;;;6.83;1.47;;;;;;;-144.99;99.50;52391.03;5077915;28;20658;-71
2021/03/23 00:33:18;;;;;;;2.87;1.63;;;;;;;-144.99;99.76;52378.78;5079980;28;21199;-71
2021/03/23 00:35:44;;;;;;;8.47;1.40;;;;;;;-144.99;99.75;52403.25;5079205;28;20674;-72
2021/03/23 00:38:11;;;;;;;3.77;1.50;;;;;;;-144.99;99.97;52391.03;5075061;28;21159;-70
2021/03/23 00:40:38;;;;;;;1.70;1.13;;;;;;;-144.99;100.00;52374.72;5080612;28;20196;-72
2021/03/23 00:43:06;;;;;;;2.63;1.27;;;;;;;-144.99;100.00;52395.09;5075491;28;21205;-72
2021/03/23 00:45:36;;;;;;;3.47;1.70;;;;;;;-144.99;100.00;52417.53;5074377;28;20714;-71
2021/03/23 00:48:02;;;;;;;4.53;1.70;;;;;;;-144.99;100.00;52386.94;5079056;28;20691;-72
2021/03/23 00:50:29;;;;;;;2.63;1.23;;;;;;;-144.99;100.00;52358.41;5068272;28;20616;-73
2021/03/23 00:52:55;;;;;;;3.90;2.00;;;;;;;-144.99;100.00;52378.78;5079295;28;21060;-74
2021/03/23 00:55:21;;;;;;;5.77;1.40;;;;;;;-144.99;100.00;52378.78;5081894;28;20623;-72
2021/03/23 00:57:47;;;;;;;4.23;2.20;;;;;;;-144.99;100.00;52413.44;5066332;28;20244;-75
2021/03/23 01:00:18;;;;;;;8.83;2.00;;;;;;;-144.99;100.00;52364.53;5066801;28;20289;-74
2021/03/23 01:02:45;;;;;;;5.20;2.93;;;;;;;-144.99;100.00;52382.88;5074147;28;20189;-75
2021/03/23 01:05:13;;;;;;;6.20;1.57;;;;;;;-144.99;100.00;52401.22;5072972;28;20871;-73
2021/03/23 01:07:40;;;;;;;7.27;2.77;;;;;;;-144.99;100.00;52425.66;5072773;28;20614;-73
2021/03/23 01:10:09;;;;;;;11.03;4.77;;;;;;;-144.99;100.00;52413.44;5076235;28;20635;-74
2021/03/23 01:12:35;;;;;;;5.27;3.07;;;;;;;-144.99;100.00;52403.25;5070340;28;21199;-73
2021/03/23 01:15:02;;;;;;;6.50;2.60;;;;;;;-144.99;100.00;52366.56;5077196;28;20627;-73
2021/03/23 01:17:28;;;;;;;6.17;2.47;;;;;;;-144.99;100.00;52370.63;5073996;28;20622;-75
2021/03/23 01:19:54;;;;;;;4.53;1.80;;;;;;;-144.99;100.00;52382.88;5077633;28;20715;-73
2021/03/23 01:22:20;;;;;;;3.47;2.53;;;;;;;-144.99;100.00;52382.88;5077395;28;20246;-73
2021/03/23 01:24:47;;;;;;;11.67;2.90;;;;;;;-144.99;100.00;52419.56;5086294;28;20197;-73
2021/03/23 01:27:13;;;;;;;4.43;3.07;;;;;;;-144.99;100.00;52364.53;5079703;28;20637;-72
2021/03/23 01:29:39;;;;;;;5.67;2.50;;;;;;;-144.99;100.00;52458.28;5074742;28;20649;-73
2021/03/23 01:32:06;;;;;;;6.53;3.17;;;;;;;-144.99;100.00;52435.88;5076232;28;20596;-73
2021/03/23 01:34:33;;;;;;;6.40;2.57;;;;;;;-144.99;100.00;52386.94;5073657;28;20296;-72
2021/03/23 01:36:59;;;;;;;8.83;3.07;;;;;;;-144.99;100.00;52338.03;5077550;28;21218;-73
2021/03/23 01:39:25;;;;;;;8.40;3.33;;;;;;;-144.99;100.00;52391.03;5079968;28;20642;-74
2021/03/23 01:41:52;;;;;;;7.80;3.57;;;;;;;-144.99;100.00;52431.78;5080569;28;20699;-74
2021/03/23 01:44:18;;;;;;;4.90;2.90;;;;;;;-144.99;100.00;52364.53;5077054;28;20622;-73
2021/03/23 01:46:45;;;;;;;3.93;1.73;;;;;;;-144.99;100.00;52358.41;5081996;28;20626;-72
2021/03/23 01:49:15;;;;;;;10.93;2.63;;;;;;;-144.99;100.00;52382.88;5077573;28;20254;-72
2021/03/23 01:51:43;;;;;;;7.27;2.10;;;;;;;-144.99;100.00;52378.78;5072422;28;21215;-73
2021/03/23 01:54:13;;;;;;;5.40;1.93;;;;;;;-144.99;100.00;52382.88;5079203;28;20734;-72
2021/03/23 01:56:39;;;;;;;3.93;2.03;;;;;;;-144.99;100.00;52397.13;5077992;28;20625;-72
2021/03/23 01:59:08;;;;;;;5.33;2.20;;;;;;;-144.99;99.79;52364.53;5065910;28;20662;-71
2021/03/23 02:01:37;;;;;;;2.80;1.43;;;;;;;-144.99;99.79;52380.84;5072041;28;20707;-72
2021/03/23 02:04:04;;;;;;;4.37;2.30;;;;;;;-144.99;99.54;52376.75;5067161;28;21161;-71
2021/03/23 02:06:40;;;;;;;4.37;2.47;;;;;;;-144.99;99.62;52391.03;5074784;28;20621;-72
2021/03/23 02:09:10;;;;;;;5.80;1.73;;;;;;;-144.99;99.47;52417.53;5103094;22;20685;-79
2021/03/23 02:11:43;;;;;;;4.10;1.50;;;;;;;-144.99;99.34;52378.78;5077524;28;21195;-77
2021/03/23 02:14:11;;;;;;;7.87;2.60;;;;;;;-144.99;99.13;52370.63;5081423;28;20622;-78
2021/03/23 02:16:37;;;;;;;2.73;1.50;;;;;;;-144.99;99.08;52374.72;5088781;28;20624;-79
2021/03/23 02:19:05;;;;;;;5.63;1.90;;;;;;;-144.99;99.20;52382.88;5086663;28;21022;-77
2021/03/23 02:21:31;;;;;;;4.63;1.87;;;;;;;-144.99;98.96;52382.88;5082969;28;20203;-78
2021/03/23 02:23:58;;;;;;;5.63;2.60;;;;;;;-144.99;98.94;52384.91;5077217;28;20681;-78
2021/03/23 02:26:26;;;;;;;4.83;2.37;;;;;;;-144.99;98.79;52391.03;5086383;28;20626;-79
2021/03/23 02:28:56;;;;;;;3.57;2.47;;;;;;;-144.99;98.79;52350.25;5081509;28;20648;-75
2021/03/23 02:31:25;;;;;;;3.00;1.83;;;;;;;-144.99;98.79;52352.28;5076319;28;20653;-75
2021/03/23 02:33:51;;;;;;;9.10;1.97;;;;;;;-144.99;98.78;52423.63;5077368;28;21168;-79
2021/03/23 02:36:18;;;;;;;3.17;1.30;;;;;;;-144.99;98.77;52391.03;5083268;28;20618;-80
2021/03/23 02:38:45;;;;;;;5.83;2.00;;;;;;;-144.99;98.62;52370.63;5082667;28;20626;-80
2021/03/23 02:41:11;;;;;;;9.37;2.77;;;;;;;-144.99;98.50;52366.56;5079912;28;20611;-81
2021/03/23 02:43:37;;;;;;;6.13;3.10;;;;;;;-144.99;98.42;52333.94;5083682;28;21241;-78
2021/03/23 02:46:04;;;;;;;6.13;1.73;;;;;;;-144.99;98.51;52395.09;5081450;28;20792;-76
2021/03/23 02:48:30;;;;;;;2.07;1.37;;;;;;;-144.99;98.53;52374.72;5074296;28;20622;-77
2021/03/23 02:50:56;;;;;;;5.23;2.77;;;;;;;-144.99;98.50;52415.47;5081617;28;20700;-76
2021/03/23 02:53:22;;;;;;;9.97;2.47;;;;;;;-144.99;98.63;52366.56;5074014;28;20623;-77
2021/03/23 02:55:49;;;;;;;5.10;1.47;;;;;;;-144.99;98.80;52348.22;5082140;28;20199;-76
2021/03/23 02:58:16;;;;;;;7.50;1.93;;;;;;;-144.99;98.61;52399.19;5082327;28;20629;-76
2021/03/23 03:00:42;;;;;;;4.60;2.13;;;;;;;-144.99;98.54;52397.13;5081861;28;20773;-77
2021/03/23 03:03:08;;;;;;;4.37;2.07;;;;;;;-144.99;98.42;52395.09;5079787;28;20663;-77
2021/03/23 03:05:34;;;;;;;2.97;1.17;;;;;;;-144.99;98.19;52403.25;5075137;28;20611;-78
2021/03/23 03:08:00;;;;;;;5.00;1.70;;;;;;;-144.99;98.27;52431.78;5078853;28;20633;-74
2021/03/23 03:10:27;;;;;;;6.20;1.87;;;;;;;-144.99;98.13;52374.72;5072382;28;20666;-73
2021/03/23 03:12:54;;;;;;;5.40;2.27;;;;;;;-144.99;98.17;52399.19;5079406;28;20799;-73
2021/03/23 03:15:20;;;;;;;4.43;1.57;;;;;;;-144.99;98.07;52366.56;5081094;28;20627;-74
2021/03/23 03:17:46;;;;;;;4.53;2.17;;;;;;;-144.99;98.13;52366.56;5075246;28;20637;-73
2021/03/23 03:20:14;;;;;;;3.77;2.23;;;;;;;-144.99;98.14;52370.63;5079452;28;21098;-77
2021/03/23 03:22:40;;;;;;;6.60;2.57;;;;;;;-144.99;98.16;52333.94;5072492;28;20774;-75
2021/03/23 03:25:07;;;;;;;4.53;2.43;;;;;;;-144.99;98.14;52386.94;5075474;28;20743;-75
2021/03/23 03:27:34;;;;;;;5.03;2.67;;;;;;;-144.99;98.10;52378.78;5078362;28;20200;-75
2021/03/23 03:30:00;;;;;;;7.00;2.30;;;;;;;-144.99;98.29;52395.09;5071092;28;20778;-75
2021/03/23 03:32:27;;;;;;;13.50;4.67;;;;;;;-144.99;98.19;52417.53;5069665;28;20742;-76
2021/03/23 03:34:52;;;;;;;6.43;2.80;;;;;;;-144.99;98.26;52380.84;5079474;28;21217;-75
2021/03/23 03:37:19;;;;;;;5.97;2.43;;;;;;;-144.99;98.19;52354.34;5081471;28;20614;-75
2021/03/23 03:39:45;;;;;;;8.80;3.07;;;;;;;-144.99;98.19;52374.72;5077623;28;21695;-74
2021/03/23 03:42:11;;;;;;;3.47;2.47;;;;;;;-144.99;98.51;52380.84;5078713;28;20841;-75
2021/03/23 03:44:37;;;;;;;4.33;2.80;;;;;;;-144.99;98.51;52382.88;5078823;28;20202;-74
2021/03/23 03:47:05;;;;;;;5.47;3.33;;;;;;;-144.99;98.61;52366.56;5076651;28;20617;-74
2021/03/23 03:49:31;;;;;;;10.13;4.10;;;;;;;-144.99;98.68;52391.03;5076766;28;20294;-76
2021/03/23 03:51:57;;;;;;;5.47;2.37;;;;;;;-144.99;98.84;52313.56;5083746;28;21175;-76
2021/03/23 03:54:23;;;;;;;4.30;3.70;;;;;;;-144.99;98.64;52344.16;5077108;28;20456;-76
2021/03/23 03:56:48;;;;;;;7.13;4.13;;;;;;;-144.99;98.74;52354.34;5086683;28;20223;-76
2021/03/23 03:59:14;;;;;;;5.87;2.70;;;;;;;-144.99;98.73;52403.25;5076496;28;20361;-76
2021/03/23 04:01:40;;;;;;;8.57;3.07;;;;;;;-144.99;98.77;52346.19;5088038;28;20479;-76
2021/03/23 04:04:08;;;;;;;4.90;2.90;;;;;;;-144.99;98.72;52382.88;5078848;28;20201;-76
2021/03/23 04:06:34;;;;;;;8.40;4.33;;;;;;;-144.99;98.63;52368.59;5073056;28;20655;-77
2021/03/23 04:09:00;;;;;;;7.17;3.80;;;;;;;-144.99;98.55;52395.09;5072865;28;20708;-75
2021/03/23 04:11:25;;;;;;;5.33;3.20;;;;;;;-144.99;98.75;52407.31;5072385;28;20343;-77
2021/03/23 04:13:51;;;;;;;7.67;3.20;;;;;;;-144.99;98.87;52374.72;5072703;28;20391;-76
2021/03/23 04:16:17;;;;;;;8.57;3.33;;;;;;;-144.99;98.87;52399.19;5072771;28;20440;-77
2021/03/23 04:18:43;;;;;;;10.87;3.43;;;;;;;-144.99;98.65;52350.25;5072939;28;21448;-76
2021/03/23 04:21:10;;;;;;;5.77;3.60;;;;;;;-144.99;98.92;52386.94;5073068;28;20452;-76
2021/03/23 04:23:38;;;;;;;10.93;3.63;;;;;;;-144.99;98.91;52352.28;5072549;28;20210;-76
2021/03/23 04:26:06;;;;;;;10.27;3.97;;;;;;;-144.99;98.81;52401.22;5072826;28;20615;-74
2021/03/23 04:28:35;;;;;;;6.00;2.87;;;;;;;-144.99;99.17;52374.72;5073747;28;20630;-74
2021/03/23 04:31:02;;;;;;;6.27;3.53;;;;;;;-144.99;99.20;52344.16;5083817;28;20617;-72
2021/03/23 04:33:29;;;;;;;7.47;3.40;;;;;;;-144.99;99.58;52407.31;5075820;28;20815;-73
2021/03/23 04:35:56;;;;;;;6.47;3.47;;;;;;;-144.99;100.00;52395.09;5086771;28;20622;-72
2021/03/23 04:38:26;;;;;;;11.07;5.13;;;;;;;-144.99;100.00;52427.72;5079971;28;20626;-75
2021/03/23 04:40:53;;;;;;;8.97;3.97;;;;;;;-144.99;100.00;52386.94;5075836;28;20648;-73
2021/03/23 04:43:22;;;;;;;8.07;3.67;;;;;;;-144.99;100.00;52382.88;5083064;28;20722;-75
2021/03/23 04:45:48;;;;;;;7.50;2.77;;;;;;;-144.99;100.00;52374.72;5078341;28;20710;-78
2021/03/23 04:48:15;;;;;;;7.53;4.10;;;;;;;-144.99;100.00;52362.50;5074346;28;21298;-78
2021/03/23 04:50:41;;;;;;;8.30;3.73;;;;;;;-144.99;100.00;52378.78;5084799;28;20653;-77
2021/03/23 04:53:07;;;;;;;10.17;4.17;;;;;;;-144.99;100.00;52378.78;5082517;28;20649;-77
2021/03/23 04:55:34;;;;;;;7.33;3.70;;;;;;;-144.99;100.00;52395.09;5083129;28;20632;-78
2021/03/23 04:58:00;;;;;;;4.93;3.73;;;;;;;-144.99;100.00;52378.78;5080313;28;20668;-80
2021/03/23 05:00:26;;;;;;;7.13;3.70;;;;;;;-144.99;100.00;52419.56;5085151;28;20658;-77
2021/03/23 05:02:52;;;;;;;7.37;4.50;;;;;;;-144.99;100.00;52382.88;5079729;28;20207;-77
2021/03/23 05:05:18;;;;;;;9.37;4.63;;;;;;;-144.99;100.00;52368.59;5077006;28;20622;-76
2021/03/23 05:07:44;;;;;;;9.57;4.40;;;;;;;-144.99;100.00;52350.25;5075564;28;20626;-76
2021/03/23 05:10:12;;;;;;;7.70;5.50;;;;;;;-144.99;100.00;52388.97;5073867;28;20232;-75
2021/03/23 05:12:39;;;;;;;8.27;4.33;;;;;;;-144.99;100.00;52399.19;5075315;28;20625;-77
2021/03/23 05:15:08;;;;;;;9.20;4.83;;;;;;;-144.99;100.00;52395.09;5078314;28;20684;-82
2021/03/23 05:17:34;;;;;;;9.90;4.37;;;;;;;-144.99;100.00;52403.25;5080034;28;20636;-76
2021/03/23 05:20:00;;;;;;;14.90;5.00;;;;;;;-144.99;100.00;52358.41;5078582;28;20740;-77
2021/03/23 05:22:25;;;;;;;8.07;4.43;;;;;;;-144.99;100.00;52386.94;5084116;28;20217;-74
2021/03/23 05:24:51;;;;;;;9.67;6.00;;;;;;;-144.99;100.00;52370.63;5080579;28;20386;-73
2021/03/23 05:27:17;;;;;;;9.63;6.50;;;;;;;-144.99;100.00;52382.88;5078092;28;20196;-73
2021/03/23 05:29:44;;;;;;;14.13;5.57;;;;;;;-144.99;100.00;52338.03;5078361;28;20247;-74
2021/03/23 05:32:11;;;;;;;11.20;7.43;;;;;;;-144.99;100.00;52350.25;5083339;28;20269;-76
2021/03/23 05:34:37;;;;;;;12.80;8.53;;;;;;;-144.99;100.00;52435.88;5081905;28;21195;-75
2021/03/23 05:37:03;;;;;;;9.60;5.10;;;;;;;-144.99;100.00;52386.94;5084235;28;20691;-76
2021/03/23 05:39:29;;;;;;;13.70;5.60;;;;;;;-144.99;100.00;52366.56;5080758;28;21226;-75
2021/03/23 05:42:02;;;;;;;12.13;7.17;;;;;;;-144.99;100.00;52374.72;5078883;28;20763;-76
2021/03/23 05:45:04;;;;;;;10.73;7.70;;;;;;;-144.99;100.00;52399.19;5079366;28;20675;-76
2021/03/23 05:47:33;;;;;;;12.83;6.00;;;;;;;-144.99;100.00;52391.03;5075004;28;21024;-75
2021/03/23 05:50:07;;;;;;;14.30;6.33;;;;;;;-144.99;100.00;52350.25;5079971;28;20649;-75
2021/03/23 05:52:38;;;;;;;11.87;6.93;;;;;;;-144.99;100.00;52395.09;5077553;28;20643;-75
2021/03/23 05:55:15;;;;;;;16.47;9.23;;;;;;;-144.99;100.00;52407.31;5078764;28;20919;-74
2021/03/23 05:57:44;;;;;;;10.53;7.03;;;;;;;-144.99;100.00;52384.91;5081829;28;20625;-76
2021/03/23 06:00:22;;;;;;;11.10;7.70;;;;;;;-144.99;100.00;52342.09;5085218;28;21233;-75
2021/03/23 06:02:52;;;;;;;10.40;6.60;;;;;;;-144.99;100.00;52366.56;5080738;28;20742;-73
2021/03/23 06:05:42;;;;;;;11.70;6.77;;;;;;;-144.99;100.00;52403.25;5070931;28;20623;-72
2021/03/23 06:08:20;;;;;;;15.90;7.20;;;;;;;-144.99;100.00;52350.25;5081500;28;20999;-73
2021/03/23 06:10:46;;;;;;;17.87;7.43;;;;;;;-144.99;100.00;52380.84;5078768;28;20664;-73
2021/03/23 06:13:23;;;;;;;15.97;7.83;;;;;;;-144.99;100.00;52321.72;5075671;28;20643;-74
2021/03/23 06:16:05;;;;;;;13.07;7.50;;;;;;;-144.99;100.00;52382.88;5078151;28;20625;-73
2021/03/23 06:18:34;;;;;;;12.87;7.00;;;;;;;-144.99;100.00;52370.63;5081059;28;20622;-75
2021/03/23 06:21:07;;;;;;;13.57;7.30;;;;;;;-144.99;100.00;52354.34;4024595;28;10001027;-74
2021/03/23 06:23:50;;;;;;;16.27;7.77;;;;;;;-144.99;100.00;52356.38;5074479;28;20654;-75
2021/03/23 06:26:27;;;;;;;11.90;6.57;;;;;;;-144.99;100.00;52368.59;5077616;28;20692;-74
2021/03/23 06:29:02;;;;;;;18.37;8.40;;;;;;;-144.99;100.00;52409.38;5076037;28;20723;-76
2021/03/23 06:31:59;;;;;;;14.67;9.33;;;;;;;-144.99;100.00;52354.34;5068395;28;20634;-75
2021/03/23 06:34:29;;;;;;;14.63;8.27;;;;;;;-144.99;100.00;52386.94;5058117;28;20618;-74
2021/03/23 06:36:55;;;;;;;17.47;9.03;;;;;;;-144.99;100.00;52368.59;5079100;28;20614;-72
2021/03/23 06:39:22;;;;;;;13.67;9.33;;;;;;;-144.99;100.00;52411.41;5077714;28;21298;-74
2021/03/23 06:41:54;;;;;;;21.07;9.93;;;;;;;-144.99;100.00;52360.44;5073980;28;20614;-73
2021/03/23 06:44:25;;;;;;;18.53;10.90;;;;;;;-144.99;100.00;52370.63;5076143;28;21061;-75
2021/03/23 06:46:53;;;;;;;17.80;9.07;;;;;;;-144.99;100.00;52384.91;5072702;28;20618;-74
2021/03/23 06:49:31;;;;;;;20.20;9.17;;;;;;;-144.99;100.00;52329.88;5075126;28;21135;-74
2021/03/23 06:52:17;;;;;;;19.30;14.63;;;;;;;-144.99;100.00;52395.09;5071177;28;20638;-74
2021/03/23 06:54:43;;;;;;;21.90;11.37;;;;;;;-144.99;100.00;52378.78;5066211;28;20627;-72
2021/03/23 06:57:19;;;;;;;16.93;10.30;;;;;;;-144.99;100.00;52358.41;5066678;28;20611;-72
2021/03/23 06:59:48;;;;;;;24.77;11.13;;;;;;;-144.99;100.00;52338.03;5071437;28;20642;-73
2021/03/23 07:02:30;;;;;;;18.13;9.77;;;;;;;-144.99;100.00;52354.34;5076243;28;21207;-72
2021/03/23 07:05:17;;;;;;;24.87;11.57;;;;;;;-144.99;100.00;52340.06;5074065;28;20978;-73
2021/03/23 07:07:50;;;;;;;16.63;9.10;;;;;;;-144.99;100.00;52342.09;5077493;28;20981;-76
2021/03/23 07:10:21;;;;;;;13.40;8.97;;;;;;;-144.99;100.00;52374.72;5076800;28;21026;-73
2021/03/23 07:12:47;;;;;;;17.27;10.23;;;;;;;-144.99;100.00;52374.72;5071414;28;20722;-74
2021/03/23 07:15:17;;;;;;;14.00;10.13;;;;;;;-144.99;100.00;52374.72;5074128;28;20717;-73
2021/03/23 07:17:46;;;;;;;15.83;11.10;;;;;;;-144.99;100.00;52362.50;5070074;28;20212;-72
2021/03/23 07:20:24;;;;;;;22.60;13.03;;;;;;;-144.99;100.00;52382.88;5075331;28;20657;-72
2021/03/23 07:22:52;;;;;;;24.37;10.80;;;;;;;-144.99;100.00;52403.25;5070283;28;20606;-74
2021/03/23 07:25:32;;;;;;;19.03;10.57;;;;;;;-144.99;100.00;52370.63;5070548;28;20654;-73
2021/03/23 07:28:23;;;;;;;18.00;11.70;;;;;;;-144.99;100.00;52372.69;5073594;28;21209;-72
2021/03/23 07:30:54;;;;;;;17.00;10.40;;;;;;;-144.99;100.00;52391.03;5066518;28;20654;-73
2021/03/23 07:33:35;;;;;;;17.07;11.30;;;;;;;-144.99;100.00;52350.25;5066030;28;21100;-74
2021/03/23 07:36:03;;;;;;;14.63;10.53;;;;;;;-144.99;100.00;52407.31;5076930;28;20702;-73
2021/03/23 07:38:38;;;;;;;21.10;11.27;;;;;;;-144.99;100.00;52358.41;5076076;28;20619;-72
2021/03/23 07:41:06;;;;;;;14.10;11.17;;;;;;;-144.99;100.00;52362.50;5074926;28;20620;-72
2021/03/23 07:43:45;;;;;;;18.00;12.30;;;;;;;-144.99;100.00;52384.91;5080367;28;20944;-71
2021/03/23 07:46:15;;;;;;;18.87;11.73;;;;;;;-144.99;100.00;52374.72;5070235;28;20630;-73
2021/03/23 07:48:48;;;;;;;23.07;15.47;;;;;;;-144.99;100.00;52378.78;5076788;28;21008;-73
2021/03/23 07:51:26;;;;;;;19.20;12.53;;;;;;;-144.99;100.00;52370.63;5075959;28;20622;-72
2021/03/23 07:53:53;;;;;;;17.77;11.27;;;;;;;-144.99;100.00;52382.88;5069355;28;20647;-73
2021/03/23 07:56:39;;;;;;;21.00;11.30;;;;;;;-144.99;100.00;52350.25;5075265;28;20671;-73
2021/03/23 07:59:17;;;;;;;22.10;13.93;;;;;;;-144.99;100.00;52329.88;5075582;28;20654;-72
2021/03/23 08:01:48;;;;;;;19.57;15.03;;;;;;;-144.99;100.00;52374.72;5080687;28;20614;-73
2021/03/23 08:04:17;;;;;;;23.43;13.00;;;;;;;-144.99;100.00;52370.63;5070537;28;21204;-71
2021/03/23 08:07:07;;;;;;;23.23;11.70;;;;;;;-144.99;100.00;52329.88;5068081;28;20615;-75
2021/03/23 08:09:50;;;;;;;25.37;14.87;;;;;;;-144.99;100.00;52374.72;5065314;28;20669;-73
2021/03/23 08:12:40;;;;;;;18.70;11.27;;;;;;;-144.99;100.00;52370.63;5096936;22;20671;-74
2021/03/23 08:15:18;;;;;;;16.67;12.90;;;;;;;-144.99;100.00;52403.25;5086321;28;20622;-74
2021/03/23 08:18:07;;;;;;;21.33;12.90;;;;;;;-144.99;100.00;52403.25;5093308;28;20787;-75
2021/03/23 08:20:53;;;;;;;24.13;13.77;;;;;;;-144.99;100.00;52395.09;5094209;28;20618;-74
2021/03/23 08:23:31;;;;;;;24.50;14.37;;;;;;;-144.99;100.00;52382.88;5097052;28;20741;-73
2021/03/23 08:26:07;;;;;;;28.27;14.00;;;;;;;-144.99;100.00;52388.97;5084333;28;20819;-73
2021/03/23 08:28:47;;;;;;;26.17;13.50;;;;;;;-144.99;100.00;52358.41;5088069;28;20626;-77
2021/03/23 08:31:42;;;;;;;19.13;14.07;;;;;;;-144.99;100.00;52362.50;5091980;28;20649;-76
2021/03/23 08:34:24;;;;;;;27.73;13.07;;;;;;;-144.99;100.00;52391.03;5080585;28;20672;-74
2021/03/23 08:37:35;;;;;;;17.63;12.70;;;;;;;-144.99;100.00;52395.09;5083904;28;21004;-77
2021/03/23 08:40:09;;;;;;;22.33;14.57;;;;;;;-144.99;100.00;52388.97;5087246;28;20636;-75
2021/03/23 08:42:37;;;;;;;20.83;13.77;;;;;;;-144.99;100.00;52342.09;5090731;28;21069;-74
2021/03/23 08:45:07;;;;;;;18.60;12.77;;;;;;;-144.99;100.00;52342.09;5090435;28;20694;-75
2021/03/23 08:47:37;;;;;;;19.00;14.63;;;;;;;-144.99;100.00;52395.09;5090834;28;21009;-75
2021/03/23 08:50:08;;;;;;;16.73;12.50;;;;;;;-144.99;100.00;52368.59;5089921;28;20615;-74
2021/03/23 08:52:39;;;;;;;20.30;13.17;;;;;;;-144.99;100.00;52321.72;5089096;28;20662;-78
2021/03/23 08:55:07;;;;;;;19.97;13.47;;;;;;;-144.99;100.00;52315.59;5090475;28;20699;-73
2021/03/23 08:57:48;;;;;;;23.33;14.63;;;;;;;-144.99;100.00;52333.94;5089150;28;20709;-77
2021/03/23 09:00:40;;;;;;;21.83;14.57;;;;;;;-144.99;100.00;52378.78;5091020;28;20730;-74
2021/03/23 09:03:38;;;;;;;20.97;13.60;;;;;;;-144.99;100.00;52395.09;5088594;28;20685;-71
2021/03/23 09:06:05;;;;;;;20.27;13.80;;;;;;;-144.99;100.00;52393.06;5090380;28;20642;-73
2021/03/23 09:08:39;;;;;;;24.73;15.43;;;;;;;-144.99;100.00;52325.81;5091321;28;20732;-75
2021/03/23 09:11:08;;;;;;;21.73;14.43;;;;;;;-144.99;100.00;52395.09;5088714;28;20846;-76
2021/03/23 09:14:12;;;;;;;22.90;13.97;;;;;;;-144.99;100.00;52378.78;5088707;28;20865;-72
2021/03/23 09:16:52;;;;;;;19.20;13.77;;;;;;;-144.99;100.00;52346.19;5084096;28;20625;-75
2021/03/23 09:19:37;;;;;;;20.30;12.77;;;;;;;-144.99;100.00;52378.78;5087090;28;20716;-73
2021/03/23 09:22:32;;;;;;;25.03;15.43;;;;;;;-144.99;100.00;52342.09;5090047;28;20626;-76
2021/03/23 09:25:46;;;;;;;19.10;13.60;;;;;;;-144.99;100.00;52378.78;5087854;28;20645;-76
2021/03/23 09:28:40;;;;;;;22.50;13.17;;;;;;;-144.99;100.00;52386.94;5087477;28;20621;-75
2021/03/23 09:31:07;;;;;;;22.50;13.67;;;;;;;-144.99;100.00;52350.25;5088773;28;20634;-73
2021/03/23 09:33:39;;;;;;;18.00;12.63;;;;;;;-144.99;100.00;52378.78;5087190;28;21007;-76
2021/03/23 09:36:45;;;;;;;24.97;14.10;;;;;;;-144.99;100.00;52395.09;5086091;28;20628;-73
2021/03/23 09:39:40;;;;;;;22.40;14.43;;;;;;;-144.99;100.00;52362.50;5088712;28;20641;-73
2021/03/23 09:42:29;;;;;;;26.23;16.30;;;;;;;-144.99;100.00;52399.19;5077227;28;20620;-76
2021/03/23 09:45:01;;;;;;;24.63;14.53;;;;;;;-144.99;100.00;52411.41;5090044;28;21325;-76
2021/03/23 09:47:41;;;;;;;23.87;14.80;;;;;;;-144.99;100.00;52372.69;5089845;28;20632;-74
2021/03/23 09:50:23;;;;;;;27.67;15.03;;;;;;;-144.99;100.00;52366.56;5089172;28;20645;-77
2021/03/23 09:52:58;;;;;;;27.07;13.57;;;;;;;-144.99;100.00;52354.34;5091096;28;20661;-75
2021/03/23 09:55:25;;;;;;;25.77;14.73;;;;;;;-144.99;100.00;52415.47;5090181;28;20633;-76
2021/03/23 09:57:55;;;;;;;22.13;13.97;;;;;;;-144.99;100.00;52374.72;5086177;28;20978;-76
2021/03/23 10:00:25;;;;;;;29.00;18.03;;;;;;;-144.99;100.00;52350.25;5096970;28;20636;-76
2021/03/23 10:02:51;;;;;;;24.83;15.87;;;;;;;-144.99;100.00;52362.50;5089039;28;20693;-73
2021/03/23 10:05:19;;;;;;;19.27;13.73;;;;;;;-144.99;100.00;52391.03;5085056;28;21186;-75
2021/03/23 10:07:47;;;;;;;27.90;16.03;;;;;;;-144.99;100.00;52374.72;5098799;28;20991;-74
2021/03/23 10:10:24;;;;;;;21.73;15.67;;;;;;;-144.99;100.00;52358.41;5089526;28;21203;-73
2021/03/23 10:12:50;;;;;;;26.13;17.07;;;;;;;-144.99;100.00;52350.25;5091840;28;20746;-74
2021/03/23 10:15:32;;;;;;;22.03;15.93;;;;;;;-144.99;100.00;52325.81;5077265;28;20725;-73
2021/03/23 10:18:14;;;;;;;32.67;16.80;;;;;;;-144.99;100.00;52362.50;5084071;28;20629;-76
2021/03/23 10:20:40;;;;;;;31.30;17.50;;;;;;;-144.99;100.00;52397.13;5090829;28;20676;-74
2021/03/23 10:23:06;;;;;;;22.93;14.60;;;;;;;-144.99;100.00;52354.34;5088438;28;20686;-76
2021/03/23 10:25:33;;;;;;;25.47;14.47;;;;;;;-144.99;100.00;52315.59;5091453;28;20614;-75
2021/03/23 10:28:00;;;;;;;25.57;20.50;;;;;;;-144.99;100.00;52346.19;5091390;28;20648;-75
2021/03/23 10:30:33;;;;;;;29.30;18.90;;;;;;;-144.99;100.00;52388.97;5095965;28;20648;-75
2021/03/23 10:33:17;;;;;;;29.57;17.70;;;;;;;-144.99;100.00;52362.50;5089877;28;21213;-74
2021/03/23 10:35:52;;;;;;;25.73;17.60;;;;;;;-144.99;100.00;52374.72;5088383;28;20629;-75
2021/03/23 10:38:20;;;;;;;32.17;17.27;;;;;;;-144.99;100.00;52382.88;5090660;28;20702;-73
2021/03/23 10:40:48;;;;;;;26.00;16.37;;;;;;;-144.99;100.00;52399.19;5095705;28;20252;-74
2021/03/23 10:43:26;;;;;;;27.23;18.07;;;;;;;-144.99;100.00;52350.25;5095267;28;21012;-76
2021/03/23 10:45:54;;;;;;;24.77;15.93;;;;;;;-144.99;100.00;52342.09;5092694;28;20658;-75
2021/03/23 10:48:25;;;;;;;23.53;18.53;;;;;;;-144.99;100.00;52370.63;5094720;28;21081;-74
2021/03/23 10:51:17;;;;;;;26.00;17.07;;;;;;;-144.99;100.00;52338.03;5087104;28;20227;-75
2021/03/23 10:53:58;;;;;;;30.63;17.23;;;;;;;-144.99;100.00;52358.41;5096039;28;20700;-75
2021/03/23 10:56:30;;;;;;;25.93;18.03;;;;;;;-144.99;100.00;52344.16;5088716;28;20204;-75
2021/03/23 10:59:10;;;;;;;26.17;18.10;;;;;;;-144.99;100.00;52386.94;5089451;28;20293;-73
2021/03/23 11:01:38;;;;;;;28.67;18.07;;;;;;;-144.99;100.00;52366.56;5088198;28;20621;-77
2021/03/23 11:04:12;;;;;;;28.20;17.10;;;;;;;-144.99;100.00;52356.38;5083367;28;20759;-74
2021/03/23 11:06:40;;;;;;;23.00;15.83;;;;;;;-144.99;100.00;52356.38;5088977;28;20208;-73
2021/03/23 11:09:08;;;;;;;27.83;16.53;;;;;;;-144.99;100.00;52362.50;5088370;28;20204;-74
2021/03/23 11:11:35;;;;;;;27.90;17.87;;;;;;;-144.99;100.00;52333.94;5085833;28;20610;-76
2021/03/23 11:14:01;;;;;;;27.70;18.10;;;;;;;-144.99;100.00;52354.34;5085945;28;20319;-73
2021/03/23 11:16:30;;;;;;;24.13;18.17;;;;;;;-144.99;100.00;52325.81;5085803;28;20934;-75
2021/03/23 11:19:00;;;;;;;30.37;18.67;;;;;;;-144.99;100.00;52307.47;5089641;28;20196;-76
2021/03/23 11:21:27;;;;;;;22.30;16.00;;;;;;;-144.99;100.00;52317.66;5087889;28;20203;-74
2021/03/23 11:23:55;;;;;;;32.00;17.87;;;;;;;-144.99;100.00;52395.09;5087391;28;20212;-74